sensor_id;sensor_type;location;lat;lon;timestamp;P1;durP1;ratioP1;P2;durP2;ratioP2
27939;SDS011;15275;51.716;14.324;2022-08-02T00:02:23;2.67;;;2.47;;
27939;SDS011;15275;51.716;14.324;2022-08-02T00:04:50;3.35;;;3.05;;
27939;SDS011;15275;51.716;14.324;2022-08-02T00:07:16;2.58;;;2.38;;
27939;SDS011;15275;51.716;14.324;2022-08-02T00:09:42;3.03;;;2.60;;
27939;SDS011;15275;51.716;14.324;2022-08-02T00:12:09;2.67;;;2.42;;
27939;SDS011;15275;51.716;14.324;2022-08-02T00:14:35;2.65;;;2.45;;
27939;SDS011;15275;51.716;14.324;2022-08-02T00:17:03;2.55;;;2.20;;
27939;SDS011;15275;51.716;14.324;2022-08-02T00:19:29;2.38;;;2.17;;
27939;SDS011;15275;51.716;14.324;2022-08-02T00:21:55;2.60;;;2.40;;
27939;SDS011;15275;51.716;14.324;2022-08-02T00:24:21;2.83;;;2.47;;
27939;SDS011;15275;51.716;14.324;2022-08-02T00:26:47;3.03;;;2.72;;
27939;SDS011;15275;51.716;14.324;2022-08-02T00:29:13;2.20;;;2.03;;
27939;SDS011;15275;51.716;14.324;2022-08-02T00:31:39;3.10;;;2.55;;
27939;SDS011;15275;51.716;14.324;2022-08-02T00:34:05;3.15;;;2.38;;
27939;SDS011;15275;51.716;14.324;2022-08-02T00:36:31;2.40;;;2.20;;
27939;SDS011;15275;51.716;14.324;2022-08-02T00:38:57;2.30;;;2.10;;
27939;SDS011;15275;51.716;14.324;2022-08-02T00:41:23;3.42;;;2.15;;
27939;SDS011;15275;51.716;14.324;2022-08-02T00:43:50;3.75;;;2.90;;
27939;SDS011;15275;51.716;14.324;2022-08-02T00:46:17;2.15;;;1.95;;
27939;SDS011;15275;51.716;14.324;2022-08-02T00:48:45;2.47;;;2.28;;
27939;SDS011;15275;51.716;14.324;2022-08-02T00:51:12;2.78;;;2.58;;
27939;SDS011;15275;51.716;14.324;2022-08-02T00:53:39;2.90;;;2.47;;
27939;SDS011;15275;51.716;14.324;2022-08-02T00:56:05;2.83;;;2.40;;
27939;SDS011;15275;51.716;14.324;2022-08-02T00:58:31;2.50;;;2.30;;
27939;SDS011;15275;51.716;14.324;2022-08-02T01:00:57;3.50;;;2.50;;
27939;SDS011;15275;51.716;14.324;2022-08-02T01:03:25;3.25;;;2.20;;
27939;SDS011;15275;51.716;14.324;2022-08-02T01:05:51;3.50;;;3.15;;
27939;SDS011;15275;51.716;14.324;2022-08-02T01:08:16;2.60;;;2.40;;
27939;SDS011;15275;51.716;14.324;2022-08-02T01:10:43;2.67;;;2.47;;
27939;SDS011;15275;51.716;14.324;2022-08-02T01:13:09;2.40;;;2.20;;
27939;SDS011;15275;51.716;14.324;2022-08-02T01:15:37;2.50;;;2.30;;
27939;SDS011;15275;51.716;14.324;2022-08-02T01:18:26;2.80;;;2.45;;
27939;SDS011;15275;51.716;14.324;2022-08-02T01:21:12;2.33;;;2.13;;
27939;SDS011;15275;51.716;14.324;2022-08-02T01:24:07;2.47;;;2.28;;
27939;SDS011;15275;51.716;14.324;2022-08-02T01:27:17;2.47;;;2.10;;
27939;SDS011;15275;51.716;14.324;2022-08-02T01:30:03;2.10;;;1.92;;
27939;SDS011;15275;51.716;14.324;2022-08-02T01:32:32;2.13;;;1.92;;
27939;SDS011;15275;51.716;14.324;2022-08-02T01:35:17;3.55;;;2.45;;
27939;SDS011;15275;51.716;14.324;2022-08-02T01:37:54;5.10;;;2.15;;
27939;SDS011;15275;51.716;14.324;2022-08-02T01:40:30;3.58;;;2.50;;
27939;SDS011;15275;51.716;14.324;2022-08-02T01:43:00;3.13;;;2.47;;
27939;SDS011;15275;51.716;14.324;2022-08-02T01:45:28;3.00;;;2.28;;
27939;SDS011;15275;51.716;14.324;2022-08-02T01:47:58;2.20;;;2.00;;
27939;SDS011;15275;51.716;14.324;2022-08-02T01:50:25;2.42;;;2.22;;
27939;SDS011;15275;51.716;14.324;2022-08-02T01:52:57;2.38;;;2.17;;
27939;SDS011;15275;51.716;14.324;2022-08-02T01:55:29;2.72;;;2.33;;
27939;SDS011;15275;51.716;14.324;2022-08-02T01:58:08;2.38;;;2.15;;
27939;SDS011;15275;51.716;14.324;2022-08-02T02:00:39;2.20;;;2.00;;
27939;SDS011;15275;51.716;14.324;2022-08-02T02:03:07;2.78;;;2.22;;
27939;SDS011;15275;51.716;14.324;2022-08-02T02:05:37;2.50;;;2.30;;
27939;SDS011;15275;51.716;14.324;2022-08-02T02:08:05;2.75;;;2.45;;
27939;SDS011;15275;51.716;14.324;2022-08-02T02:10:33;3.63;;;2.58;;
27939;SDS011;15275;51.716;14.324;2022-08-02T02:13:04;2.92;;;2.63;;
27939;SDS011;15275;51.716;14.324;2022-08-02T02:15:42;3.58;;;2.55;;
27939;SDS011;15275;51.716;14.324;2022-08-02T02:18:19;2.50;;;2.30;;
27939;SDS011;15275;51.716;14.324;2022-08-02T02:20:48;2.50;;;2.30;;
27939;SDS011;15275;51.716;14.324;2022-08-02T02:23:15;3.03;;;2.72;;
27939;SDS011;15275;51.716;14.324;2022-08-02T02:25:42;2.90;;;2.65;;
27939;SDS011;15275;51.716;14.324;2022-08-02T02:28:13;2.85;;;2.50;;
27939;SDS011;15275;51.716;14.324;2022-08-02T02:30:47;4.20;;;2.80;;
27939;SDS011;15275;51.716;14.324;2022-08-02T02:33:17;3.75;;;3.08;;
27939;SDS011;15275;51.716;14.324;2022-08-02T02:35:45;2.83;;;2.63;;
27939;SDS011;15275;51.716;14.324;2022-08-02T02:38:15;3.05;;;2.72;;
27939;SDS011;15275;51.716;14.324;2022-08-02T02:40:45;3.58;;;3.28;;
27939;SDS011;15275;51.716;14.324;2022-08-02T02:43:11;3.35;;;2.97;;
27939;SDS011;15275;51.716;14.324;2022-08-02T02:45:39;3.15;;;2.78;;
27939;SDS011;15275;51.716;14.324;2022-08-02T02:48:06;3.05;;;2.75;;
27939;SDS011;15275;51.716;14.324;2022-08-02T02:50:34;2.85;;;2.65;;
27939;SDS011;15275;51.716;14.324;2022-08-02T02:53:01;3.17;;;2.88;;
27939;SDS011;15275;51.716;14.324;2022-08-02T02:55:29;3.00;;;2.70;;
27939;SDS011;15275;51.716;14.324;2022-08-02T02:57:56;3.08;;;2.75;;
27939;SDS011;15275;51.716;14.324;2022-08-02T03:00:22;2.67;;;2.47;;
27939;SDS011;15275;51.716;14.324;2022-08-02T03:03:08;3.13;;;2.75;;
27939;SDS011;15275;51.716;14.324;2022-08-02T03:05:35;6.22;;;3.03;;
27939;SDS011;15275;51.716;14.324;2022-08-02T03:08:01;3.05;;;2.80;;
27939;SDS011;15275;51.716;14.324;2022-08-02T03:10:27;2.97;;;2.67;;
27939;SDS011;15275;51.716;14.324;2022-08-02T03:12:54;3.50;;;2.90;;
27939;SDS011;15275;51.716;14.324;2022-08-02T03:15:22;3.22;;;3.00;;
27939;SDS011;15275;51.716;14.324;2022-08-02T03:17:52;3.10;;;2.80;;
27939;SDS011;15275;51.716;14.324;2022-08-02T03:20:18;3.58;;;3.28;;
27939;SDS011;15275;51.716;14.324;2022-08-02T03:22:46;3.10;;;2.70;;
27939;SDS011;15275;51.716;14.324;2022-08-02T03:25:13;3.75;;;2.78;;
27939;SDS011;15275;51.716;14.324;2022-08-02T03:27:40;3.30;;;3.00;;
27939;SDS011;15275;51.716;14.324;2022-08-02T03:30:10;3.47;;;2.97;;
27939;SDS011;15275;51.716;14.324;2022-08-02T03:32:38;3.22;;;2.92;;
27939;SDS011;15275;51.716;14.324;2022-08-02T03:35:09;3.25;;;2.95;;
27939;SDS011;15275;51.716;14.324;2022-08-02T03:37:36;3.58;;;3.25;;
27939;SDS011;15275;51.716;14.324;2022-08-02T03:40:06;3.38;;;2.60;;
27939;SDS011;15275;51.716;14.324;2022-08-02T03:42:35;5.15;;;3.05;;
27939;SDS011;15275;51.716;14.324;2022-08-02T03:45:04;3.65;;;3.05;;
27939;SDS011;15275;51.716;14.324;2022-08-02T03:47:35;3.22;;;2.92;;
27939;SDS011;15275;51.716;14.324;2022-08-02T03:50:03;3.88;;;3.40;;
27939;SDS011;15275;51.716;14.324;2022-08-02T03:52:31;4.88;;;3.20;;
27939;SDS011;15275;51.716;14.324;2022-08-02T03:54:58;3.22;;;2.90;;
27939;SDS011;15275;51.716;14.324;2022-08-02T03:57:24;3.65;;;3.33;;
27939;SDS011;15275;51.716;14.324;2022-08-02T03:59:51;4.70;;;3.17;;
27939;SDS011;15275;51.716;14.324;2022-08-02T04:02:16;4.30;;;3.63;;
27939;SDS011;15275;51.716;14.324;2022-08-02T04:04:42;3.55;;;3.25;;
27939;SDS011;15275;51.716;14.324;2022-08-02T04:07:08;4.75;;;3.25;;
27939;SDS011;15275;51.716;14.324;2022-08-02T04:09:34;5.07;;;3.42;;
27939;SDS011;15275;51.716;14.324;2022-08-02T04:12:00;3.17;;;2.90;;
27939;SDS011;15275;51.716;14.324;2022-08-02T04:14:26;4.55;;;3.13;;
27939;SDS011;15275;51.716;14.324;2022-08-02T04:16:58;3.97;;;3.58;;
27939;SDS011;15275;51.716;14.324;2022-08-02T04:19:39;4.43;;;3.28;;
27939;SDS011;15275;51.716;14.324;2022-08-02T04:22:28;4.72;;;3.40;;
27939;SDS011;15275;51.716;14.324;2022-08-02T04:25:02;3.97;;;3.50;;
27939;SDS011;15275;51.716;14.324;2022-08-02T04:27:31;4.78;;;3.65;;
27939;SDS011;15275;51.716;14.324;2022-08-02T04:30:00;4.53;;;3.83;;
27939;SDS011;15275;51.716;14.324;2022-08-02T04:32:29;4.10;;;3.65;;
27939;SDS011;15275;51.716;14.324;2022-08-02T04:34:57;4.30;;;3.88;;
27939;SDS011;15275;51.716;14.324;2022-08-02T04:37:25;4.68;;;3.90;;
27939;SDS011;15275;51.716;14.324;2022-08-02T04:39:51;3.85;;;3.22;;
27939;SDS011;15275;51.716;14.324;2022-08-02T04:42:21;4.85;;;3.75;;
27939;SDS011;15275;51.716;14.324;2022-08-02T04:44:48;3.95;;;3.35;;
27939;SDS011;15275;51.716;14.324;2022-08-02T04:47:15;4.00;;;3.60;;
27939;SDS011;15275;51.716;14.324;2022-08-02T04:49:42;4.05;;;3.65;;
27939;SDS011;15275;51.716;14.324;2022-08-02T04:52:07;4.25;;;3.38;;
27939;SDS011;15275;51.716;14.324;2022-08-02T04:54:33;3.92;;;3.53;;
27939;SDS011;15275;51.716;14.324;2022-08-02T04:56:59;4.38;;;3.70;;
27939;SDS011;15275;51.716;14.324;2022-08-02T04:59:25;4.07;;;3.67;;
27939;SDS011;15275;51.716;14.324;2022-08-02T05:01:51;6.05;;;3.83;;
27939;SDS011;15275;51.716;14.324;2022-08-02T05:04:18;5.55;;;3.58;;
27939;SDS011;15275;51.716;14.324;2022-08-02T05:06:44;4.18;;;3.72;;
27939;SDS011;15275;51.716;14.324;2022-08-02T05:09:10;4.43;;;4.03;;
27939;SDS011;15275;51.716;14.324;2022-08-02T05:11:36;4.35;;;3.70;;
27939;SDS011;15275;51.716;14.324;2022-08-02T05:14:03;4.53;;;3.83;;
27939;SDS011;15275;51.716;14.324;2022-08-02T05:16:29;4.28;;;3.85;;
27939;SDS011;15275;51.716;14.324;2022-08-02T05:18:55;4.78;;;3.97;;
27939;SDS011;15275;51.716;14.324;2022-08-02T05:21:21;4.28;;;3.50;;
27939;SDS011;15275;51.716;14.324;2022-08-02T05:23:47;5.70;;;3.38;;
27939;SDS011;15275;51.716;14.324;2022-08-02T05:26:13;4.85;;;3.72;;
27939;SDS011;15275;51.716;14.324;2022-08-02T05:28:39;3.67;;;3.38;;
27939;SDS011;15275;51.716;14.324;2022-08-02T05:31:05;3.42;;;3.13;;
27939;SDS011;15275;51.716;14.324;2022-08-02T05:33:31;3.97;;;3.58;;
27939;SDS011;15275;51.716;14.324;2022-08-02T05:35:57;5.28;;;4.30;;
27939;SDS011;15275;51.716;14.324;2022-08-02T05:38:23;4.63;;;4.13;;
27939;SDS011;15275;51.716;14.324;2022-08-02T05:40:50;8.20;;;6.10;;
27939;SDS011;15275;51.716;14.324;2022-08-02T05:43:16;7.50;;;5.00;;
27939;SDS011;15275;51.716;14.324;2022-08-02T05:45:42;6.22;;;5.07;;
27939;SDS011;15275;51.716;14.324;2022-08-02T05:48:08;7.32;;;5.10;;
27939;SDS011;15275;51.716;14.324;2022-08-02T05:50:37;7.97;;;4.70;;
27939;SDS011;15275;51.716;14.324;2022-08-02T05:53:31;7.20;;;5.15;;
27939;SDS011;15275;51.716;14.324;2022-08-02T05:56:15;6.00;;;4.78;;
27939;SDS011;15275;51.716;14.324;2022-08-02T05:58:58;8.13;;;5.05;;
27939;SDS011;15275;51.716;14.324;2022-08-02T06:01:33;8.10;;;5.18;;
27939;SDS011;15275;51.716;14.324;2022-08-02T06:06:34;9.18;;;4.72;;
27939;SDS011;15275;51.716;14.324;2022-08-02T06:09:03;10.18;;;4.95;;
27939;SDS011;15275;51.716;14.324;2022-08-02T06:11:35;8.20;;;6.03;;
27939;SDS011;15275;51.716;14.324;2022-08-02T06:14:07;10.48;;;5.82;;
27939;SDS011;15275;51.716;14.324;2022-08-02T06:16:33;7.85;;;6.00;;
27939;SDS011;15275;51.716;14.324;2022-08-02T06:19:01;8.23;;;5.95;;
27939;SDS011;15275;51.716;14.324;2022-08-02T06:21:28;8.23;;;6.45;;
27939;SDS011;15275;51.716;14.324;2022-08-02T06:23:54;7.47;;;6.15;;
27939;SDS011;15275;51.716;14.324;2022-08-02T06:26:23;8.25;;;5.97;;
27939;SDS011;15275;51.716;14.324;2022-08-02T06:28:54;6.80;;;5.47;;
27939;SDS011;15275;51.716;14.324;2022-08-02T06:31:22;7.70;;;5.15;;
27939;SDS011;15275;51.716;14.324;2022-08-02T06:33:48;6.05;;;5.32;;
27939;SDS011;15275;51.716;14.324;2022-08-02T06:39:03;7.28;;;4.47;;
27939;SDS011;15275;51.716;14.324;2022-08-02T06:41:44;5.60;;;4.70;;
27939;SDS011;15275;51.716;14.324;2022-08-02T06:44:14;6.88;;;5.43;;
27939;SDS011;15275;51.716;14.324;2022-08-02T06:46:40;6.85;;;5.45;;
27939;SDS011;15275;51.716;14.324;2022-08-02T06:49:06;7.82;;;6.18;;
27939;SDS011;15275;51.716;14.324;2022-08-02T06:51:33;8.25;;;5.93;;
27939;SDS011;15275;51.716;14.324;2022-08-02T06:53:59;7.63;;;5.85;;
27939;SDS011;15275;51.716;14.324;2022-08-02T06:56:25;14.60;;;9.70;;
27939;SDS011;15275;51.716;14.324;2022-08-02T06:58:51;8.80;;;6.57;;
27939;SDS011;15275;51.716;14.324;2022-08-02T07:01:17;6.47;;;5.07;;
27939;SDS011;15275;51.716;14.324;2022-08-02T07:03:43;6.88;;;5.30;;
27939;SDS011;15275;51.716;14.324;2022-08-02T07:06:10;6.63;;;4.80;;
27939;SDS011;15275;51.716;14.324;2022-08-02T07:08:36;6.72;;;4.93;;
27939;SDS011;15275;51.716;14.324;2022-08-02T07:11:12;5.05;;;4.45;;
27939;SDS011;15275;51.716;14.324;2022-08-02T07:13:38;5.70;;;4.28;;
27939;SDS011;15275;51.716;14.324;2022-08-02T07:16:04;5.97;;;4.97;;
27939;SDS011;15275;51.716;14.324;2022-08-02T07:18:30;9.30;;;6.03;;
27939;SDS011;15275;51.716;14.324;2022-08-02T07:20:56;5.63;;;4.82;;
27939;SDS011;15275;51.716;14.324;2022-08-02T07:23:22;9.80;;;5.90;;
27939;SDS011;15275;51.716;14.324;2022-08-02T07:25:48;6.82;;;5.78;;
27939;SDS011;15275;51.716;14.324;2022-08-02T07:28:14;5.93;;;5.30;;
27939;SDS011;15275;51.716;14.324;2022-08-02T07:30:40;7.43;;;6.47;;
27939;SDS011;15275;51.716;14.324;2022-08-02T07:33:07;5.93;;;5.32;;
27939;SDS011;15275;51.716;14.324;2022-08-02T07:35:34;7.10;;;6.35;;
27939;SDS011;15275;51.716;14.324;2022-08-02T07:38:00;7.25;;;5.63;;
27939;SDS011;15275;51.716;14.324;2022-08-02T07:40:26;6.43;;;5.40;;
27939;SDS011;15275;51.716;14.324;2022-08-02T07:42:54;6.03;;;5.47;;
27939;SDS011;15275;51.716;14.324;2022-08-02T07:45:22;9.15;;;6.00;;
27939;SDS011;15275;51.716;14.324;2022-08-02T07:47:49;6.60;;;5.93;;
27939;SDS011;15275;51.716;14.324;2022-08-02T07:50:16;7.93;;;5.28;;
27939;SDS011;15275;51.716;14.324;2022-08-02T07:52:44;8.38;;;5.75;;
27939;SDS011;15275;51.716;14.324;2022-08-02T07:55:11;7.57;;;5.53;;
27939;SDS011;15275;51.716;14.324;2022-08-02T07:57:39;5.85;;;5.28;;
27939;SDS011;15275;51.716;14.324;2022-08-02T08:00:06;6.65;;;5.07;;
27939;SDS011;15275;51.716;14.324;2022-08-02T08:02:34;5.90;;;5.38;;
27939;SDS011;15275;51.716;14.324;2022-08-02T08:05:00;6.82;;;6.07;;
27939;SDS011;15275;51.716;14.324;2022-08-02T08:07:26;7.07;;;5.80;;
27939;SDS011;15275;51.716;14.324;2022-08-02T08:09:52;6.90;;;5.72;;
27939;SDS011;15275;51.716;14.324;2022-08-02T08:12:19;6.50;;;5.47;;
27939;SDS011;15275;51.716;14.324;2022-08-02T08:14:45;7.32;;;5.68;;
27939;SDS011;15275;51.716;14.324;2022-08-02T08:17:11;6.05;;;5.47;;
27939;SDS011;15275;51.716;14.324;2022-08-02T08:19:37;7.20;;;5.00;;
27939;SDS011;15275;51.716;14.324;2022-08-02T08:22:03;5.32;;;4.82;;
27939;SDS011;15275;51.716;14.324;2022-08-02T08:24:30;6.53;;;5.07;;
27939;SDS011;15275;51.716;14.324;2022-08-02T08:26:55;5.72;;;5.22;;
27939;SDS011;15275;51.716;14.324;2022-08-02T08:29:22;5.13;;;4.63;;
27939;SDS011;15275;51.716;14.324;2022-08-02T08:31:48;6.55;;;5.03;;
27939;SDS011;15275;51.716;14.324;2022-08-02T08:34:14;4.68;;;4.28;;
27939;SDS011;15275;51.716;14.324;2022-08-02T08:36:41;5.13;;;4.63;;
27939;SDS011;15275;51.716;14.324;2022-08-02T08:39:07;4.10;;;3.67;;
27939;SDS011;15275;51.716;14.324;2022-08-02T08:41:36;3.95;;;3.65;;
27939;SDS011;15275;51.716;14.324;2022-08-02T08:44:02;4.97;;;3.47;;
27939;SDS011;15275;51.716;14.324;2022-08-02T08:46:29;6.20;;;4.82;;
27939;SDS011;15275;51.716;14.324;2022-08-02T08:49:14;4.47;;;4.07;;
27939;SDS011;15275;51.716;14.324;2022-08-02T08:51:50;6.80;;;4.28;;
27939;SDS011;15275;51.716;14.324;2022-08-02T08:54:20;6.35;;;4.65;;
27939;SDS011;15275;51.716;14.324;2022-08-02T08:56:52;4.57;;;4.07;;
27939;SDS011;15275;51.716;14.324;2022-08-02T08:59:19;5.00;;;4.43;;
27939;SDS011;15275;51.716;14.324;2022-08-02T09:01:45;4.32;;;3.72;;
27939;SDS011;15275;51.716;14.324;2022-08-02T09:04:14;4.47;;;4.07;;
27939;SDS011;15275;51.716;14.324;2022-08-02T09:06:40;4.78;;;3.75;;
27939;SDS011;15275;51.716;14.324;2022-08-02T09:09:06;4.43;;;3.70;;
27939;SDS011;15275;51.716;14.324;2022-08-02T09:11:32;5.35;;;3.60;;
27939;SDS011;15275;51.716;14.324;2022-08-02T09:13:59;4.03;;;3.10;;
27939;SDS011;15275;51.716;14.324;2022-08-02T09:18:57;4.10;;;3.50;;
27939;SDS011;15275;51.716;14.324;2022-08-02T09:21:32;4.38;;;2.95;;
27939;SDS011;15275;51.716;14.324;2022-08-02T09:24:01;4.07;;;3.30;;
27939;SDS011;15275;51.716;14.324;2022-08-02T09:26:27;4.95;;;2.55;;
27939;SDS011;15275;51.716;14.324;2022-08-02T09:28:58;2.67;;;2.33;;
27939;SDS011;15275;51.716;14.324;2022-08-02T09:31:26;2.38;;;2.17;;
27939;SDS011;15275;51.716;14.324;2022-08-02T09:33:56;5.82;;;2.28;;
27939;SDS011;15275;51.716;14.324;2022-08-02T09:36:24;2.55;;;2.22;;
27939;SDS011;15275;51.716;14.324;2022-08-02T09:39:03;2.20;;;2.00;;
27939;SDS011;15275;51.716;14.324;2022-08-02T09:41:35;2.90;;;2.05;;
27939;SDS011;15275;51.716;14.324;2022-08-02T09:44:05;2.97;;;2.30;;
27939;SDS011;15275;51.716;14.324;2022-08-02T09:46:43;2.10;;;1.88;;
27939;SDS011;15275;51.716;14.324;2022-08-02T09:49:12;2.47;;;1.98;;
27939;SDS011;15275;51.716;14.324;2022-08-02T09:51:50;3.08;;;1.90;;
27939;SDS011;15275;51.716;14.324;2022-08-02T09:54:22;2.05;;;1.75;;
27939;SDS011;15275;51.716;14.324;2022-08-02T09:56:53;1.88;;;1.77;;
27939;SDS011;15275;51.716;14.324;2022-08-02T09:59:24;2.33;;;1.70;;
27939;SDS011;15275;51.716;14.324;2022-08-02T10:01:52;2.00;;;1.70;;
27939;SDS011;15275;51.716;14.324;2022-08-02T10:04:20;1.80;;;1.70;;
27939;SDS011;15275;51.716;14.324;2022-08-02T10:06:49;2.38;;;1.98;;
27939;SDS011;15275;51.716;14.324;2022-08-02T10:09:18;2.22;;;1.90;;
27939;SDS011;15275;51.716;14.324;2022-08-02T10:11:46;1.95;;;1.63;;
27939;SDS011;15275;51.716;14.324;2022-08-02T10:14:13;2.05;;;1.77;;
27939;SDS011;15275;51.716;14.324;2022-08-02T10:16:40;2.45;;;1.80;;
27939;SDS011;15275;51.716;14.324;2022-08-02T10:19:08;3.88;;;1.70;;
27939;SDS011;15275;51.716;14.324;2022-08-02T10:24:17;1.92;;;1.38;;
27939;SDS011;15275;51.716;14.324;2022-08-02T10:26:46;2.10;;;1.42;;
27939;SDS011;15275;51.716;14.324;2022-08-02T10:29:17;2.08;;;1.77;;
27939;SDS011;15275;51.716;14.324;2022-08-02T10:31:50;2.83;;;1.52;;
27939;SDS011;15275;51.716;14.324;2022-08-02T10:34:44;2.78;;;1.67;;
27939;SDS011;15275;51.716;14.324;2022-08-02T10:37:12;4.05;;;1.77;;
27939;SDS011;15275;51.716;14.324;2022-08-02T10:39:40;4.82;;;1.92;;
27939;SDS011;15275;51.716;14.324;2022-08-02T10:42:08;3.15;;;1.40;;
27939;SDS011;15275;51.716;14.324;2022-08-02T10:44:36;1.73;;;1.63;;
27939;SDS011;15275;51.716;14.324;2022-08-02T10:47:22;3.70;;;1.83;;
27939;SDS011;15275;51.716;14.324;2022-08-02T10:49:53;2.35;;;1.70;;
27939;SDS011;15275;51.716;14.324;2022-08-02T10:52:24;3.45;;;1.52;;
27939;SDS011;15275;51.716;14.324;2022-08-02T10:54:55;3.08;;;1.63;;
27939;SDS011;15275;51.716;14.324;2022-08-02T11:00:24;3.03;;;1.48;;
27939;SDS011;15275;51.716;14.324;2022-08-02T11:05:25;2.75;;;1.75;;
27939;SDS011;15275;51.716;14.324;2022-08-02T11:07:56;3.75;;;1.73;;
27939;SDS011;15275;51.716;14.324;2022-08-02T11:13:08;4.75;;;1.75;;
27939;SDS011;15275;51.716;14.324;2022-08-02T11:23:53;3.17;;;1.58;;
27939;SDS011;15275;51.716;14.324;2022-08-02T11:29:04;1.90;;;1.75;;
27939;SDS011;15275;51.716;14.324;2022-08-02T11:31:40;2.50;;;1.80;;
27939;SDS011;15275;51.716;14.324;2022-08-02T11:34:08;1.88;;;1.58;;
27939;SDS011;15275;51.716;14.324;2022-08-02T11:36:42;2.33;;;1.50;;
27939;SDS011;15275;51.716;14.324;2022-08-02T11:39:15;2.67;;;1.52;;
27939;SDS011;15275;51.716;14.324;2022-08-02T11:41:47;2.77;;;1.60;;
27939;SDS011;15275;51.716;14.324;2022-08-02T11:44:22;1.90;;;1.80;;
27939;SDS011;15275;51.716;14.324;2022-08-02T11:46:54;2.78;;;1.80;;
27939;SDS011;15275;51.716;14.324;2022-08-02T11:49:26;2.03;;;1.75;;
27939;SDS011;15275;51.716;14.324;2022-08-02T11:51:54;2.08;;;1.90;;
27939;SDS011;15275;51.716;14.324;2022-08-02T11:54:27;5.22;;;1.65;;
27939;SDS011;15275;51.716;14.324;2022-08-02T11:59:41;1.70;;;1.60;;
27939;SDS011;15275;51.716;14.324;2022-08-02T12:02:09;1.98;;;1.77;;
27939;SDS011;15275;51.716;14.324;2022-08-02T12:04:36;2.08;;;1.67;;
27939;SDS011;15275;51.716;14.324;2022-08-02T12:07:03;1.50;;;1.40;;
27939;SDS011;15275;51.716;14.324;2022-08-02T12:09:31;2.38;;;1.90;;
27939;SDS011;15275;51.716;14.324;2022-08-02T12:11:59;1.77;;;1.67;;
27939;SDS011;15275;51.716;14.324;2022-08-02T12:14:27;2.60;;;1.50;;
27939;SDS011;15275;51.716;14.324;2022-08-02T12:16:55;3.53;;;1.85;;
27939;SDS011;15275;51.716;14.324;2022-08-02T12:19:40;2.17;;;1.88;;
27939;SDS011;15275;51.716;14.324;2022-08-02T12:24:36;2.13;;;1.40;;
27939;SDS011;15275;51.716;14.324;2022-08-02T12:27:04;1.88;;;1.77;;
27939;SDS011;15275;51.716;14.324;2022-08-02T12:29:37;2.05;;;1.70;;
27939;SDS011;15275;51.716;14.324;2022-08-02T12:32:06;1.92;;;1.48;;
27939;SDS011;15275;51.716;14.324;2022-08-02T12:34:34;1.60;;;1.48;;
27939;SDS011;15275;51.716;14.324;2022-08-02T12:37:05;2.10;;;1.67;;
27939;SDS011;15275;51.716;14.324;2022-08-02T12:39:44;1.90;;;1.63;;
27939;SDS011;15275;51.716;14.324;2022-08-02T12:42:14;2.25;;;1.48;;
27939;SDS011;15275;51.716;14.324;2022-08-02T12:44:53;1.45;;;1.35;;
27939;SDS011;15275;51.716;14.324;2022-08-02T12:47:24;2.13;;;1.55;;
27939;SDS011;15275;51.716;14.324;2022-08-02T12:52:44;1.63;;;1.40;;
27939;SDS011;15275;51.716;14.324;2022-08-02T12:55:16;3.53;;;1.63;;
27939;SDS011;15275;51.716;14.324;2022-08-02T13:00:24;1.58;;;1.48;;
27939;SDS011;15275;51.716;14.324;2022-08-02T13:02:57;2.30;;;1.38;;
27939;SDS011;15275;51.716;14.324;2022-08-02T13:05:24;3.30;;;1.60;;
27939;SDS011;15275;51.716;14.324;2022-08-02T13:07:53;3.30;;;1.50;;
27939;SDS011;15275;51.716;14.324;2022-08-02T13:10:21;2.65;;;1.65;;
27939;SDS011;15275;51.716;14.324;2022-08-02T13:12:48;2.22;;;1.60;;
27939;SDS011;15275;51.716;14.324;2022-08-02T13:15:14;2.10;;;1.38;;
27939;SDS011;15275;51.716;14.324;2022-08-02T13:17:41;5.25;;;1.50;;
27939;SDS011;15275;51.716;14.324;2022-08-02T13:20:08;1.52;;;1.42;;
27939;SDS011;15275;51.716;14.324;2022-08-02T13:22:35;2.03;;;1.70;;
27939;SDS011;15275;51.716;14.324;2022-08-02T13:25:03;2.42;;;1.50;;
27939;SDS011;15275;51.716;14.324;2022-08-02T13:27:30;2.28;;;1.65;;
27939;SDS011;15275;51.716;14.324;2022-08-02T13:29:56;1.90;;;1.40;;
27939;SDS011;15275;51.716;14.324;2022-08-02T13:32:23;1.67;;;1.42;;
27939;SDS011;15275;51.716;14.324;2022-08-02T13:34:50;2.00;;;1.50;;
27939;SDS011;15275;51.716;14.324;2022-08-02T13:37:16;1.52;;;1.42;;
27939;SDS011;15275;51.716;14.324;2022-08-02T13:39:42;2.13;;;1.60;;
27939;SDS011;15275;51.716;14.324;2022-08-02T13:42:09;2.13;;;1.50;;
27939;SDS011;15275;51.716;14.324;2022-08-02T13:44:34;1.60;;;1.50;;
27939;SDS011;15275;51.716;14.324;2022-08-02T13:47:01;2.08;;;1.52;;
27939;SDS011;15275;51.716;14.324;2022-08-02T13:49:27;1.67;;;1.58;;
27939;SDS011;15275;51.716;14.324;2022-08-02T13:51:54;4.35;;;1.65;;
27939;SDS011;15275;51.716;14.324;2022-08-02T13:54:19;1.83;;;1.55;;
27939;SDS011;15275;51.716;14.324;2022-08-02T13:56:45;3.25;;;1.60;;
27939;SDS011;15275;51.716;14.324;2022-08-02T13:59:11;3.08;;;1.55;;
27939;SDS011;15275;51.716;14.324;2022-08-02T14:01:37;2.08;;;1.88;;
27939;SDS011;15275;51.716;14.324;2022-08-02T14:04:04;3.70;;;1.80;;
27939;SDS011;15275;51.716;14.324;2022-08-02T14:06:30;4.47;;;1.70;;
27939;SDS011;15275;51.716;14.324;2022-08-02T14:08:56;2.10;;;1.40;;
27939;SDS011;15275;51.716;14.324;2022-08-02T14:11:21;1.80;;;1.30;;
27939;SDS011;15275;51.716;14.324;2022-08-02T14:13:47;4.20;;;1.55;;
27939;SDS011;15275;51.716;14.324;2022-08-02T14:16:13;2.47;;;1.40;;
27939;SDS011;15275;51.716;14.324;2022-08-02T14:18:39;1.60;;;1.38;;
27939;SDS011;15275;51.716;14.324;2022-08-02T14:21:05;1.85;;;1.33;;
27939;SDS011;15275;51.716;14.324;2022-08-02T14:23:31;1.75;;;1.25;;
27939;SDS011;15275;51.716;14.324;2022-08-02T14:25:57;1.55;;;1.45;;
27939;SDS011;15275;51.716;14.324;2022-08-02T14:28:23;3.83;;;1.50;;
27939;SDS011;15275;51.716;14.324;2022-08-02T14:30:49;1.90;;;1.40;;
27939;SDS011;15275;51.716;14.324;2022-08-02T14:33:15;2.08;;;1.60;;
27939;SDS011;15275;51.716;14.324;2022-08-02T14:35:43;1.67;;;1.23;;
27939;SDS011;15275;51.716;14.324;2022-08-02T14:38:09;2.00;;;1.25;;
27939;SDS011;15275;51.716;14.324;2022-08-02T14:40:35;1.35;;;1.17;;
27939;SDS011;15275;51.716;14.324;2022-08-02T14:43:02;3.05;;;1.50;;
27939;SDS011;15275;51.716;14.324;2022-08-02T14:45:28;1.95;;;1.38;;
27939;SDS011;15275;51.716;14.324;2022-08-02T14:47:56;3.45;;;1.90;;
27939;SDS011;15275;51.716;14.324;2022-08-02T14:50:22;1.55;;;1.38;;
27939;SDS011;15275;51.716;14.324;2022-08-02T14:52:48;4.18;;;1.60;;
27939;SDS011;15275;51.716;14.324;2022-08-02T14:55:15;2.92;;;1.50;;
27939;SDS011;15275;51.716;14.324;2022-08-02T14:57:41;1.75;;;1.40;;
27939;SDS011;15275;51.716;14.324;2022-08-02T15:00:08;2.30;;;1.55;;
27939;SDS011;15275;51.716;14.324;2022-08-02T15:02:34;2.28;;;1.23;;
27939;SDS011;15275;51.716;14.324;2022-08-02T15:05:01;1.50;;;1.38;;
27939;SDS011;15275;51.716;14.324;2022-08-02T15:07:27;2.40;;;1.67;;
27939;SDS011;15275;51.716;14.324;2022-08-02T15:09:52;3.00;;;1.55;;
27939;SDS011;15275;51.716;14.324;2022-08-02T15:12:18;1.65;;;1.35;;
27939;SDS011;15275;51.716;14.324;2022-08-02T15:14:44;2.08;;;1.27;;
27939;SDS011;15275;51.716;14.324;2022-08-02T15:17:10;1.80;;;1.40;;
27939;SDS011;15275;51.716;14.324;2022-08-02T15:19:36;2.25;;;1.33;;
27939;SDS011;15275;51.716;14.324;2022-08-02T15:22:04;2.65;;;1.50;;
27939;SDS011;15275;51.716;14.324;2022-08-02T15:24:30;2.35;;;1.42;;